Time;durP1;ratioP1;P1;durP2;ratioP2;P2;SDS_P1;SDS_P2;PMS_P1;PMS_P2;Temp;Humidity;BMP_temperature;BMP_pressure;BME280_temperature;BME280_humidity;BME280_pressure;Samples;Min_cycle;Max_cycle;Signal;HPM_P1;HPM_P2
2023/05/07 00:08:16;;;;;;;8.00;4.20;;;;;;;8.28;76.03;100557.78;30991203;28;96845;-68
2023/05/07 00:23:16;;;;;;;8.07;4.50;;;;;;;8.29;76.62;100564.78;30989002;28;109500;-69
2023/05/07 00:38:17;;;;;;;7.15;3.60;;;;;;;8.27;76.06;100572.06;30987201;28;101863;-64
2023/05/07 00:53:17;;;;;;;6.80;3.97;;;;;;;8.27;76.58;100582.69;30986201;28;97051;-65
2023/05/07 01:08:18;;;;;;;5.60;3.88;;;;;;;8.25;76.49;100585.47;30985411;28;97016;-64
2023/05/07 01:23:19;;;;;;;7.55;4.18;;;;;;;8.27;76.14;100588.00;30983644;28;96876;-67
2023/05/07 01:38:22;;;;;;;8.25;4.97;;;;;;;8.22;75.92;100590.25;30982332;28;97371;-72
2023/05/07 01:53:22;;;;;;;5.83;4.43;;;;;;;8.25;76.35;100593.44;30980306;28;97516;-66
2023/05/07 02:08:22;;;;;;;6.75;4.72;;;;;;;8.19;76.07;100606.44;30979138;28;99306;-65
2023/05/07 02:23:23;;;;;;;5.25;3.95;;;;;;;8.10;76.44;100595.69;30978318;28;98315;-69
2023/05/07 02:38:23;;;;;;;6.85;4.15;;;;;;;8.01;76.13;100603.69;30977216;28;96730;-68
2023/05/07 02:53:27;;;;;;;6.50;4.45;;;;;;;7.94;76.40;100614.91;30975939;28;96689;-66
2023/05/07 03:08:27;;;;;;;9.00;4.30;;;;;;;7.93;76.17;100620.34;30987834;28;96870;-70
2023/05/07 03:23:29;;;;;;;7.20;4.17;;;;;;;7.89;75.73;100626.91;30995270;28;98363;-71
2023/05/07 03:38:29;;;;;;;9.82;4.22;;;;;;;7.85;75.86;100641.44;30992865;28;96657;-67
2023/05/07 03:53:30;;;;;;;6.18;3.53;;;;;;;7.81;75.60;100661.28;30990933;28;105517;-70
2023/05/07 04:08:30;;;;;;;5.25;3.47;;;;;;;7.83;75.27;100686.66;30990224;28;107096;-71
2023/05/07 04:23:31;;;;;;;5.25;3.33;;;;;;;7.86;75.23;100701.44;30986496;28;96794;-69
2023/05/07 04:38:31;;;;;;;7.10;3.53;;;;;;;7.99;75.70;100711.78;30988213;28;96658;-66
2023/05/07 04:53:31;;;;;;;4.88;3.50;;;;;;;8.13;75.29;100725.47;30984142;28;97573;-66
2023/05/07 05:08:32;;;;;;;3.92;2.78;;;;;;;8.69;74.54;100743.41;30984800;28;96765;-67
2023/05/07 05:23:32;;;;;;;4.63;2.63;;;;;;;8.85;73.77;100767.56;30980183;28;102870;-70
2023/05/07 05:38:32;;;;;;;3.58;3.20;;;;;;;8.60;73.35;100777.00;30859106;28;96753;-65
2023/05/07 05:53:33;;;;;;;5.22;3.67;;;;;;;9.01;73.59;100774.06;30843906;28;113002;-64
2023/05/07 06:08:33;;;;;;;3.60;3.08;;;;;;;9.63;72.46;100787.63;30854798;28;96577;-64
2023/05/07 06:23:33;;;;;;;4.85;3.58;;;;;;;9.76;71.76;100798.75;30852207;28;101267;-67
2023/05/07 06:38:34;;;;;;;4.10;2.40;;;;;;;10.06;69.98;100819.81;30859157;28;97690;-65
2023/05/07 06:53:35;;;;;;;4.38;2.50;;;;;;;9.73;69.00;100840.78;30869240;28;96891;-68
2023/05/07 07:08:35;;;;;;;3.30;2.57;;;;;;;9.49;69.58;100848.31;30871075;28;97427;-69
2023/05/07 07:23:36;;;;;;;3.65;2.30;;;;;;;9.80;68.30;100866.66;30869624;28;96969;-70
2023/05/07 07:38:36;;;;;;;3.85;2.38;;;;;;;10.47;67.18;100873.50;30868976;28;113805;-69
2023/05/07 07:53:37;;;;;;;3.22;2.30;;;;;;;10.33;65.55;100898.81;30865155;28;96839;-69
2023/05/07 08:08:37;;;;;;;4.78;2.67;;;;;;;9.87;66.07;100900.63;30860878;28;96948;-70
2023/05/07 08:23:37;;;;;;;4.47;3.42;;;;;;;9.67;66.46;100910.56;30861584;28;96763;-68
2023/05/07 08:38:40;;;;;;;4.45;3.40;;;;;;;9.57;65.84;100932.69;30861622;28;96726;-70
2023/05/07 08:53:42;;;;;;;4.53;3.73;;;;;;;9.52;65.41;100944.75;30860191;28;96811;-69
2023/05/07 09:08:49;;;;;;;5.87;4.07;;;;;;;9.51;65.80;100965.19;30858601;28;97473;-70
2023/05/07 09:23:54;;;;;;;6.63;3.50;;;;;;;10.40;64.26;100960.34;30857781;28;96629;-70
2023/05/07 09:38:56;;;;;;;6.40;3.13;;;;;;;10.64;63.49;100967.75;30856858;28;97029;-65
2023/05/07 09:54:00;;;;;;;8.03;4.70;;;;;;;11.00;62.88;100968.59;30855830;28;96818;-65
2023/05/07 10:09:00;;;;;;;4.57;3.40;;;;;;;12.38;61.74;100977.72;30854056;28;97072;-64
2023/05/07 10:24:13;;;;;;;4.28;2.85;;;;;;;12.45;58.45;100976.91;30853754;28;97323;-68
2023/05/07 10:39:14;;;;;;;5.50;2.93;;;;;;;12.53;57.28;100986.75;30851817;28;97145;-71
2023/05/07 10:54:15;;;;;;;5.18;2.90;;;;;;;12.19;56.45;100980.50;30850928;28;96861;-63
2023/05/07 11:09:16;;;;;;;4.50;2.70;;;;;;;11.80;56.63;100977.44;30849272;28;96693;-66
2023/05/07 11:24:16;;;;;;;3.38;2.65;;;;;;;12.23;56.48;100982.84;30843178;28;97397;-65
2023/05/07 11:39:32;;;;;;;4.20;2.90;;;;;;;11.77;56.20;101013.31;30858538;28;96761;-68
2023/05/07 11:54:37;;;;;;;5.23;2.33;;;;;;;12.21;55.76;101022.25;30857548;28;97100;-69
2023/05/07 12:09:37;;;;;;;4.03;2.83;;;;;;;11.84;55.22;101035.69;30855111;28;97748;-68
2023/05/07 12:24:48;;;;;;;3.75;2.60;;;;;;;12.36;54.57;101039.31;30851907;28;96825;-69
2023/05/07 12:40:03;;;;;;;4.67;3.23;;;;;;;11.97;54.16;101050.47;30850970;28;97717;-67
2023/05/07 12:55:07;;;;;;;6.03;3.63;;;;;;;11.76;54.27;101049.00;30851778;28;97112;-67
2023/05/07 13:10:08;;;;;;;5.83;2.90;;;;;;;11.89;54.15;101061.94;30849538;28;96707;-66
2023/05/07 13:25:09;;;;;;;5.60;3.40;;;;;;;11.36;54.17;101079.72;30848530;28;96707;-67
2023/05/07 13:40:10;;;;;;;4.60;3.17;;;;;;;11.48;54.51;101089.16;30887349;28;97429;-64
2023/05/07 13:55:10;;;;;;;5.68;3.40;;;;;;;11.35;53.14;101086.03;30977168;28;96700;-66
2023/05/07 14:10:11;;;;;;;4.00;2.67;;;;;;;10.87;54.39;101096.09;30978353;28;96719;-64
2023/05/07 14:25:11;;;;;;;4.07;2.80;;;;;;;10.88;54.27;101083.56;30977319;28;96687;-67
2023/05/07 14:40:12;;;;;;;5.28;3.55;;;;;;;10.90;54.77;101101.09;30934399;28;96680;-63
2023/05/07 14:55:12;;;;;;;4.13;3.22;;;;;;;10.80;54.54;101114.50;30846826;28;98480;-65
2023/05/07 15:10:12;;;;;;;5.35;3.45;;;;;;;10.79;54.54;101115.47;30857650;28;108663;-67
2023/05/07 15:25:13;;;;;;;5.18;3.40;;;;;;;10.77;55.33;101122.78;30869261;28;96633;-65
2023/05/07 15:40:14;;;;;;;4.95;3.63;;;;;;;10.58;55.57;101122.88;30867555;28;97084;-65
2023/05/07 15:55:14;;;;;;;8.30;3.90;;;;;;;10.30;56.41;101114.84;30866201;28;96687;-66
2023/05/07 16:10:15;;;;;;;6.78;4.53;;;;;;;10.18;56.68;101121.31;30863495;28;100761;-65
2023/05/07 16:25:15;;;;;;;8.02;4.13;;;;;;;10.09;57.33;101118.53;30860293;28;96938;-68
2023/05/07 16:40:16;;;;;;;4.65;3.25;;;;;;;9.94;57.95;101126.16;30851103;28;98076;-67
2023/05/07 16:55:17;;;;;;;6.50;3.50;;;;;;;9.85;58.07;101126.16;30860338;28;96867;-68
2023/05/07 17:10:18;;;;;;;6.50;4.07;;;;;;;9.71;58.52;101135.44;30859067;28;96745;-69
2023/05/07 17:25:19;;;;;;;6.00;4.23;;;;;;;9.58;58.52;101141.88;30852541;28;96742;-69
2023/05/07 17:40:21;;;;;;;6.30;4.53;;;;;;;9.40;59.38;101149.69;30849482;28;97427;-67
2023/05/07 17:55:21;;;;;;;8.30;5.23;;;;;;;9.24;59.94;101157.38;30840105;28;97259;-70
2023/05/07 18:10:22;;;;;;;7.80;3.80;;;;;;;8.99;60.13;101167.53;30835090;28;96926;-71
2023/05/07 18:25:22;;;;;;;5.78;3.95;;;;;;;8.79;60.95;101180.78;30833628;28;97122;-67
2023/05/07 18:40:23;;;;;;;5.90;4.25;;;;;;;8.67;61.29;101204.94;30832420;28;97573;-69
2023/05/07 18:55:23;;;;;;;6.80;4.18;;;;;;;8.57;61.58;101212.81;30793384;28;1194273;-77
2023/05/07 19:10:24;;;;;;;5.95;4.25;;;;;;;8.46;61.86;101225.22;30838168;28;97001;-69
2023/05/07 19:25:24;;;;;;;5.50;4.05;;;;;;;8.39;61.71;101252.38;30837717;28;97019;-71
2023/05/07 19:40:25;;;;;;;6.53;4.18;;;;;;;8.29;61.63;101255.81;30791891;28;97097;-69
2023/05/07 19:55:25;;;;;;;7.10;4.07;;;;;;;8.25;61.51;101265.00;30736155;28;97318;-62
2023/05/07 20:10:25;;;;;;;6.03;3.92;;;;;;;8.22;61.69;101280.38;30839637;28;97104;-70
2023/05/07 20:25:26;;;;;;;5.10;3.90;;;;;;;8.15;61.00;101280.03;30844527;28;110187;-71
2023/05/07 20:40:26;;;;;;;8.15;4.28;;;;;;;8.08;60.61;101284.16;30848361;28;97209;-72
2023/05/07 20:55:27;;;;;;;6.88;4.15;;;;;;;8.02;60.41;101285.50;30849157;28;97357;-74
2023/05/07 21:10:27;;;;;;;5.15;3.03;;;;;;;7.85;59.96;101301.97;30849921;28;96775;-73
2023/05/07 21:25:28;;;;;;;2.80;1.80;;;;;;;7.04;59.59;101313.63;30872210;28;97145;-74
2023/05/07 21:40:28;;;;;;;3.97;1.90;;;;;;;6.46;60.29;101321.59;30982437;28;96730;-75
2023/05/07 21:55:28;;;;;;;3.33;2.33;;;;;;;5.97;61.09;101322.56;30981451;28;96766;-74
2023/05/07 22:10:29;;;;;;;6.90;2.70;;;;;;;5.58;61.59;101320.06;30980095;28;96882;-74
2023/05/07 22:25:33;;;;;;;4.68;2.70;;;;;;;5.19;62.58;101316.63;30979313;28;96696;-75
2023/05/07 22:40:33;;;;;;;4.70;2.97;;;;;;;4.90;63.43;101308.94;30977620;28;96653;-76
2023/05/07 22:55:33;;;;;;;4.88;3.03;;;;;;;4.65;63.95;101305.34;30976610;28;96663;-74
2023/05/07 23:10:34;;;;;;;5.22;3.47;;;;;;;4.29;64.98;101306.03;30975769;28;97425;-75
2023/05/07 23:25:34;;;;;;;6.40;3.63;;;;;;;4.05;66.19;101304.91;30987787;28;96541;-75
2023/05/07 23:40:35;;;;;;;5.90;4.18;;;;;;;3.87;66.83;101303.47;30993991;28;97445;-75
2023/05/07 23:55:35;;;;;;;9.77;4.75;;;;;;;3.68;67.41;101298.53;30981825;28;97383;-76
